Gustine, California
Current Conditions -  °F | °C
As of 2:35 AM on Friday 31 Oct 2014 (Local Time) from KMER Reporting Station
Clear Clear  
Wind Chill: 55°   Ceiling: Unl
Heat Index: 55°   Visibility: 7mi
Dew Point: 55°   Wind: 6mph
Humidity: 100%   Direction: 360°N
Pressure: 29.9"   Gusts: NA
Location:  37.26°N, 121°W
Report Text: KMER 310935Z AUTO 36005KT 7SM CLR 13/13 A2990 RMK AO1
Loading
Personal Weather Stations






























Interactive Weather Map
Tropical Storm Tracking
New forecast layout! Learn more

10-Day Weather Forecast

Advertisements
Track Severe Weather on mobile